Time;durP1;ratioP1;P1;durP2;ratioP2;P2;SDS_P1;SDS_P2;PMS_P1;PMS_P2;Temp;Humidity;BMP_temperature;BMP_pressure;BME280_temperature;BME280_humidity;BME280_pressure;Samples;Min_cycle;Max_cycle;Signal;HPM_P1;HPM_P2
2021/01/31 00:01:31;;;;;;;;;;;;;;;-1.40;100.00;97777.31;4974863;28;19973;-77
2021/01/31 00:03:57;;;;;;;;;;;;;;;-1.42;100.00;97781.50;4973422;28;19949;-78
2021/01/31 00:06:22;;;;;;;;;;;;;;;-1.80;100.00;97779.09;4975842;28;19974;-78
2021/01/31 00:08:48;;;;;;;;;;;;;;;-1.66;100.00;97787.50;4957751;28;19923;-78
2021/01/31 00:11:13;;;;;;;;;;;;;;;-1.77;100.00;97790.03;4958585;28;20485;-78
2021/01/31 00:13:38;;;;;;;;;;;;;;;-1.41;100.00;97785.75;4958457;28;19966;-77
2021/01/31 00:16:04;;;;;;;;;;;;;;;-1.56;100.00;97788.31;4975300;28;20144;-78
2021/01/31 00:18:30;;;;;;;;;;;;;;;-1.86;100.00;97792.59;4958662;28;19921;-78
2021/01/31 00:20:56;;;;;;;;;;;;;;;-1.70;100.00;97793.41;4942682;28;20027;-78
2021/01/31 00:23:21;;;;;;;;;;;;;;;-1.80;100.00;97787.53;4974513;28;19957;-79
2021/01/31 00:25:47;;;;;;;;;;;;;;;-2.01;100.00;97798.50;4959591;28;19929;-78
2021/01/31 00:28:16;;;;;;;;;;;;;;;-1.91;100.00;97792.59;4958197;28;20004;-77
2021/01/31 00:30:43;;;;;;;;;;;;;;;-1.84;100.00;97795.97;4955914;28;20344;-77
2021/01/31 00:33:10;;;;;;;;;;;;;;;-1.82;100.00;97801.84;4975502;28;19972;-77
2021/01/31 00:35:37;;;;;;;;;;;;;;;-1.94;100.00;97804.38;4974042;28;19925;-78
2021/01/31 00:38:10;;;;;;;;;;;;;;;-2.08;100.00;97811.13;4976145;28;19914;-79
2021/01/31 00:40:35;;;;;;;;;;;;;;;-2.18;100.00;97805.25;4976128;28;19922;-77
2021/01/31 00:43:00;;;;;;;;;;;;;;;-1.95;100.00;97803.53;4978110;28;19968;-78
2021/01/31 00:45:27;;;;;;;;;;;;;;;-1.97;100.00;97799.34;4976569;28;19922;-78
2021/01/31 00:47:52;;;;;;;;;;;;;;;-1.87;100.00;97803.53;4977558;28;20641;-79
2021/01/31 00:50:19;;;;;;;;;;;;;;;-2.04;100.00;97808.59;4975015;28;19921;-78
2021/01/31 00:52:44;;;;;;;;;;;;;;;-1.98;100.00;97808.59;4977224;28;20016;-77
2021/01/31 00:55:10;;;;;;;;;;;;;;;-1.94;100.00;97810.28;4976560;28;20345;-78
2021/01/31 00:57:35;;;;;;;;;;;;;;;-1.74;100.00;97807.69;4960810;28;20289;-77
2021/01/31 01:00:05;;;;;;;;;;;;;;;-1.64;100.00;97803.50;4976692;28;21856;-78
2021/01/31 01:02:31;;;;;;;;;;;;;;;-1.95;100.00;97820.38;4961256;28;20016;-78
2021/01/31 01:04:56;;;;;;;;;;;;;;;-1.88;100.00;97824.56;4976847;28;20000;-78
2021/01/31 01:07:21;;;;;;;;;;;;;;;-1.94;100.00;97827.06;4978365;28;19922;-77
2021/01/31 01:09:47;;;;;;;;;;;;;;;-1.66;100.00;97825.38;4994347;28;20401;-77
2021/01/31 01:12:12;;;;;;;;;;;;;;;-1.57;100.00;97830.38;4973387;28;19941;-79
2021/01/31 01:14:38;;;;;;;;;;;;;;;-1.42;100.00;97829.50;4977552;28;19914;-77
2021/01/31 01:17:03;;;;;;;;;;;;;;;-1.39;100.00;97828.63;4994348;28;20395;-78
2021/01/31 01:19:29;;;;;;;;;;;;;;;-1.35;100.00;97828.63;4976132;28;20004;-78
2021/01/31 01:21:54;;;;;;;;;;;;;;;-1.52;100.00;97825.31;4994399;28;19928;-77
2021/01/31 01:24:19;;;;;;;;;;;;;;;-1.38;100.00;97827.81;4977671;28;19989;-77
2021/01/31 01:26:45;;;;;;;;;;;;;;;-1.59;100.00;97826.19;4976580;28;20377;-78
2021/01/31 01:29:11;;;;;;;;;;;;;;;-1.48;100.00;97830.38;4976146;28;19929;-78
2021/01/31 01:31:36;;;;;;;;;;;;;;;-1.61;100.00;97831.22;4976365;28;19929;-78
2021/01/31 01:34:02;;;;;;;;;;;;;;;-1.64;100.00;97837.97;4993038;28;19914;-79
2021/01/31 01:36:27;;;;;;;;;;;;;;;-1.48;100.00;97837.09;4979884;28;20589;-78
2021/01/31 01:38:52;;;;;;;;;;;;;;;-1.59;100.00;97836.28;4976346;28;19921;-77
2021/01/31 01:41:18;;;;;;;;;;;;;;;-1.76;100.00;97832.09;4976879;28;20036;-78
2021/01/31 01:43:43;;;;;;;;;;;;;;;-1.44;100.00;97835.41;4975860;28;19968;-77
2021/01/31 01:46:12;;;;;;;;;;;;;;;-1.54;100.00;97829.53;4975223;28;19925;-77
2021/01/31 01:48:37;;;;;;;;;;;;;;;-1.63;100.00;97835.44;4993618;28;19949;-78
2021/01/31 01:51:03;;;;;;;;;;;;;;;-2.06;100.00;97839.72;4976816;28;20478;-79
2021/01/31 01:53:28;;;;;;;;;;;;;;;-2.20;100.00;97832.16;4960408;28;19925;-77
2021/01/31 01:55:58;;;;;;;;;;;;;;;-2.31;100.00;97835.50;4975606;28;20373;-78
2021/01/31 01:58:23;;;;;;;;;;;;;;;-2.54;100.00;97837.16;4976091;28;19924;-78
2021/01/31 02:00:49;;;;;;;;;;;;;;;-2.65;100.00;97834.63;4993612;28;20571;-78
2021/01/31 02:03:17;;;;;;;;;;;;;;;-2.76;100.00;97836.28;4994107;28;19922;-78
2021/01/31 02:05:43;;;;;;;;;;;;;;;-2.14;100.00;97840.56;4976574;28;20024;-77
2021/01/31 02:08:08;;;;;;;;;;;;;;;-2.45;100.00;97829.59;4975506;28;20405;-78
2021/01/31 02:10:33;;;;;;;;;;;;;;;-2.62;100.00;97837.16;4973967;28;19918;-79
2021/01/31 02:13:00;;;;;;;;;;;;;;;-2.44;100.00;97838.88;4992762;28;19981;-79
2021/01/31 02:15:25;;;;;;;;;;;;;;;-2.53;100.00;97843.91;4958454;28;19981;-78
2021/01/31 02:17:51;;;;;;;;;;;;;;;-2.55;100.00;97841.38;4975078;28;20440;-77
2021/01/31 02:20:34;;;;;;;;;;;;;;;-2.48;100.00;97843.91;4991500;28;20008;-77
2021/01/31 02:23:13;;;;;;;;;;;;;;;-2.55;100.00;97846.41;4975690;28;19929;-77
2021/01/31 02:25:48;;;;;;;;;;;;;;;-2.67;100.00;97856.44;4959297;28;19941;-77
2021/01/31 02:28:27;;;;;;;;;;;;;;;-3.01;100.00;97850.47;4976073;28;19921;-78
2021/01/31 02:31:08;;;;;;;;;;;;;;;-2.97;100.00;97858.06;4976171;28;19922;-77
2021/01/31 02:33:40;;;;;;;;;;;;;;;-3.23;100.00;97859.66;4991868;28;19926;-78
2021/01/31 02:36:13;;;;;;;;;;;;;;;-3.34;100.00;97861.28;4976180;28;19925;-78
2021/01/31 02:38:56;;;;;;;;;;;;;;;-3.21;100.00;97852.94;4976150;28;20250;-78
2021/01/31 02:41:33;;;;;;;;;;;;;;;-3.14;100.00;97849.63;4974959;28;19921;-78
2021/01/31 02:43:58;;;;;;;;;;;;;;;-3.09;100.00;97842.91;4975801;28;19929;-79
2021/01/31 02:46:26;;;;;;;;;;;;;;;-2.72;100.00;97840.50;4978457;28;19964;-77
2021/01/31 02:48:52;;;;;;;;;;;;;;;-2.55;100.00;97846.41;4979712;28;19921;-77
2021/01/31 02:51:17;;;;;;;;;;;;;;;-2.27;100.00;97846.44;4979612;28;20004;-78
2021/01/31 02:54:01;;;;;;;;;;;;;;;-2.41;100.00;97843.91;4997279;28;20005;-77
2021/01/31 02:56:28;;;;;;;;;;;;;;;-2.83;100.00;97849.69;4979390;28;19918;-78
2021/01/31 02:58:55;;;;;;;;;;;;;;;-2.47;100.00;97848.09;4977572;28;19918;-78
2021/01/31 03:01:23;;;;;;;;;;;;;;;-3.13;100.00;97848.75;4975999;28;20007;-78
2021/01/31 03:03:54;;;;;;;;;;;;;;;-2.97;100.00;97847.97;4979875;28;19937;-78
2021/01/31 03:06:22;;;;;;;;;;;;;;;-3.04;100.00;97841.25;4996459;28;19921;-77
2021/01/31 03:09:07;;;;;;;;;;;;;;;-2.87;100.00;97837.94;4979694;28;19914;-77
2021/01/31 03:11:37;;;;;;;;;;;;;;;-2.93;100.00;97837.94;4996218;28;19928;-77
2021/01/31 03:14:04;;;;;;;;;;;;;;;-3.01;100.00;97836.22;4979911;28;19918;-78
2021/01/31 03:16:50;;;;;;;;;;;;;;;-3.16;100.00;97842.03;4975673;28;19918;-78
2021/01/31 03:19:17;;;;;;;;;;;;;;;-2.72;100.00;97835.44;4993831;28;19917;-78
2021/01/31 03:21:43;;;;;;;;;;;;;;;-2.50;100.00;97843.06;4979028;28;19961;-77
2021/01/31 03:24:29;;;;;;;;;;;;;;;-3.10;100.00;97836.22;4988523;28;19921;-78
2021/01/31 03:27:05;;;;;;;;;;;;;;;-3.20;100.00;97844.53;4978388;28;19918;-79
2021/01/31 03:29:30;;;;;;;;;;;;;;;-3.19;100.00;97839.53;4994962;28;19917;-76
2021/01/31 03:31:57;;;;;;;;;;;;;;;-2.88;100.00;97841.28;4962499;28;19914;-78
2021/01/31 03:34:24;;;;;;;;;;;;;;;-2.79;100.00;97842.16;4978974;28;19921;-78
2021/01/31 03:36:50;;;;;;;;;;;;;;;-3.08;100.00;97843.75;4962050;28;19940;-78
2021/01/31 03:39:15;;;;;;;;;;;;;;;-2.70;100.00;97840.50;4963894;28;19926;-78
2021/01/31 03:41:41;;;;;;;;;;;;;;;-2.82;100.00;97842.16;4978317;28;19953;-77
2021/01/31 03:44:06;;;;;;;;;;;;;;;-3.27;100.00;97843.66;4962461;28;20012;-77
2021/01/31 03:46:42;;;;;;;;;;;;;;;-2.99;100.00;97844.63;4977788;28;19951;-77
2021/01/31 03:49:07;;;;;;;;;;;;;;;-2.95;100.00;97835.41;4977072;28;19922;-77
2021/01/31 03:51:33;;;;;;;;;;;;;;;-2.74;100.00;97830.44;4996601;28;20025;-78
2021/01/31 03:53:58;;;;;;;;;;;;;;;-3.00;100.00;97837.91;4978754;28;19967;-77
2021/01/31 03:56:25;;;;;;;;;;;;;;;-3.32;100.00;97839.47;5002053;28;19945;-77
2021/01/31 03:58:51;;;;;;;;;;;;;;;-3.34;100.00;97851.19;4982654;28;19928;-78
2021/01/31 04:01:17;;;;;;;;;;;;;;;-3.28;100.00;97836.13;4983200;28;19930;-78
2021/01/31 04:03:47;;;;;;;;;;;;;;;-3.42;100.00;97836.91;4983844;28;19928;-78
2021/01/31 04:06:17;;;;;;;;;;;;;;;-3.35;100.00;97840.31;4981438;28;20004;-78
2021/01/31 04:08:43;;;;;;;;;;;;;;;-3.43;100.00;97845.28;4964423;28;19988;-78
2021/01/31 04:11:08;;;;;;;;;;;;;;;-3.15;100.00;97842.88;4963723;28;20416;-77
2021/01/31 04:13:34;;;;;;;;;;;;;;;-3.62;100.00;97846.88;4964055;28;19944;-78
2021/01/31 04:16:00;;;;;;;;;;;;;;;-3.34;100.00;97836.09;4977199;28;19925;-78
2021/01/31 04:18:26;;;;;;;;;;;;;;;-3.65;100.00;97851.03;4964162;28;19918;-78
2021/01/31 04:20:51;;;;;;;;;;;;;;;-3.33;100.00;97842.81;4980057;28;19929;-78
2021/01/31 04:23:17;;;;;;;;;;;;;;;-3.39;100.00;97846.16;4980733;28;19918;-78
2021/01/31 04:25:43;;;;;;;;;;;;;;;-3.16;100.00;97852.13;4963781;28;20246;-78
2021/01/31 04:28:12;;;;;;;;;;;;;;;-3.36;100.00;97851.19;4980117;28;19928;-78
2021/01/31 04:30:38;;;;;;;;;;;;;;;-3.30;100.00;97857.94;4963504;28;19988;-77
2021/01/31 04:33:04;;;;;;;;;;;;;;;-3.10;100.00;97851.31;4979855;28;19945;-78
2021/01/31 04:35:29;;;;;;;;;;;;;;;-3.28;100.00;97852.06;4979486;28;19918;-78
2021/01/31 04:37:55;;;;;;;;;;;;;;;-3.26;100.00;97852.06;4988946;28;19961;-78
2021/01/31 04:40:20;;;;;;;;;;;;;;;-3.60;100.00;97850.22;4977491;28;19937;-78
2021/01/31 04:42:46;;;;;;;;;;;;;;;-3.90;100.00;97850.91;4988118;28;19926;-79
2021/01/31 04:45:11;;;;;;;;;;;;;;;-3.27;100.00;97852.91;4978793;28;21119;-79
2021/01/31 04:47:42;;;;;;;;;;;;;;;-3.09;100.00;97858.03;4962261;28;19945;-79
2021/01/31 04:50:14;;;;;;;;;;;;;;;-3.26;100.00;97855.44;4986776;28;19918;-79
2021/01/31 04:52:59;;;;;;;;;;;;;;;-3.14;100.00;97854.66;4995941;28;19932;-79
2021/01/31 04:55:42;;;;;;;;;;;;;;;-2.86;100.00;97855.56;4977005;28;19928;-78
2021/01/31 04:58:12;;;;;;;;;;;;;;;-3.37;100.00;97867.97;4962052;28;20313;-79
2021/01/31 05:00:40;;;;;;;;;;;;;;;-3.22;100.00;97869.69;4962307;28;20311;-79
2021/01/31 05:03:05;;;;;;;;;;;;;;;-3.32;100.00;97859.59;4976205;28;19922;-79
2021/01/31 05:05:36;;;;;;;;;;;;;;;-3.21;100.00;97857.97;4978502;28;19926;-79
2021/01/31 05:08:03;;;;;;;;;;;;;;;-3.07;100.00;97860.56;4977778;28;19976;-78
2021/01/31 05:10:29;;;;;;;;;;;;;;;-3.06;100.00;97847.94;4978169;28;19942;-79
2021/01/31 05:12:57;;;;;;;;;;;;;;;-2.97;100.00;97854.69;4977192;28;20524;-79
2021/01/31 05:15:25;;;;;;;;;;;;;;;-3.10;100.00;97858.00;4993910;28;19937;-79
2021/01/31 05:17:52;;;;;;;;;;;;;;;-3.47;100.00;97858.69;4959770;28;20056;-78
2021/01/31 05:20:19;;;;;;;;;;;;;;;-3.50;100.00;97863.69;4978566;28;20428;-78
2021/01/31 05:22:45;;;;;;;;;;;;;;;-3.65;100.00;97856.06;4978447;28;20418;-80
2021/01/31 05:25:12;;;;;;;;;;;;;;;-3.34;100.00;97866.31;4962093;28;20402;-80
2021/01/31 05:27:37;;;;;;;;;;;;;;;-3.41;100.00;97871.31;4976328;28;20385;-79
2021/01/31 05:30:03;;;;;;;;;;;;;;;-3.25;100.00;97871.38;4959837;28;19937;-79
2021/01/31 05:32:29;;;;;;;;;;;;;;;-3.27;100.00;97878.09;4994367;28;19957;-78
2021/01/31 05:34:57;;;;;;;;;;;;;;;-3.25;100.00;97876.41;4977075;28;20544;-79
2021/01/31 05:37:42;;;;;;;;;;;;;;;-3.31;100.00;97876.38;4978152;28;20292;-78
2021/01/31 05:40:09;;;;;;;;;;;;;;;-3.94;100.00;97873.50;4991950;28;19960;-79
2021/01/31 05:42:35;;;;;;;;;;;;;;;-3.55;100.00;97890.53;4976561;28;19929;-79
2021/01/31 05:45:04;;;;;;;;;;;;;;;-3.36;100.00;97891.47;4976652;28;19922;-79
2021/01/31 05:47:48;;;;;;;;;;;;;;;-4.00;100.00;97894.38;4994648;28;19937;-79
2021/01/31 05:50:25;;;;;;;;;;;;;;;-4.04;100.00;97888.50;4960374;28;20369;-78
2021/01/31 05:52:50;;;;;;;;;;;;;;;-4.15;100.00;97880.03;4976661;28;21030;-79
2021/01/31 05:55:34;;;;;;;;;;;;;;;-4.15;100.00;97884.19;4960065;28;19917;-78
2021/01/31 05:58:12;;;;;;;;;;;;;;;-4.13;100.00;97887.56;4993914;28;19950;-79
2021/01/31 06:00:37;;;;;;;;;;;;;;;-3.89;100.00;97892.81;4976653;28;20393;-79
2021/01/31 06:03:04;;;;;;;;;;;;;;;-3.94;100.00;97891.09;4960856;28;19929;-79
2021/01/31 06:05:30;;;;;;;;;;;;;;;-4.03;100.00;97889.34;4976649;28;19984;-79
2021/01/31 06:08:00;;;;;;;;;;;;;;;-3.72;100.00;97894.59;4961334;28;19918;-79
2021/01/31 06:10:25;;;;;;;;;;;;;;;-3.88;100.00;97894.47;4976295;28;19918;-79
2021/01/31 06:12:51;;;;;;;;;;;;;;;-3.86;100.00;97891.97;4994309;28;19928;-79
2021/01/31 06:15:25;;;;;;;;;;;;;;;-3.85;100.00;97902.06;4976204;28;19941;-79
2021/01/31 06:17:58;;;;;;;;;;;;;;;-3.93;100.00;97895.28;4976568;28;19926;-78
2021/01/31 06:20:33;;;;;;;;;;;;;;;-4.08;100.00;97896.00;4971894;28;19922;-78
2021/01/31 06:22:59;;;;;;;;;;;;;;;-3.82;100.00;97902.06;4975066;28;19925;-80
2021/01/31 06:25:27;;;;;;;;;;;;;;;-4.73;100.00;97899.56;4975994;28;20021;-79
2021/01/31 06:27:53;;;;;;;;;;;;;;;-4.47;100.00;97887.25;4994167;28;19957;-78
2021/01/31 06:30:23;;;;;;;;;;;;;;;-4.42;100.00;97895.72;4975170;28;19929;-79
2021/01/31 06:32:50;;;;;;;;;;;;;;;-4.96;100.00;97881.75;4975076;28;19977;-79
2021/01/31 06:35:16;;;;;;;;;;;;;;;-5.13;100.00;97884.91;4976151;28;20005;-78
2021/01/31 06:37:53;;;;;;;;;;;;;;;-4.75;100.00;97881.97;4973269;28;20418;-79
2021/01/31 06:40:23;;;;;;;;;;;;;;;-4.70;100.00;97882.00;4976070;28;19937;-79
2021/01/31 06:42:52;;;;;;;;;;;;;;;-4.67;100.00;97885.41;4972340;28;19933;-78
2021/01/31 06:45:40;;;;;;;;;;;;;;;-4.32;100.00;97882.38;4956783;28;19929;-79
2021/01/31 06:48:08;;;;;;;;;;;;;;;-3.98;100.00;97887.72;4968394;28;19968;-78
2021/01/31 06:50:38;;;;;;;;;;;;;;;-4.28;100.00;97900.88;4972128;28;19929;-79
2021/01/31 06:53:26;;;;;;;;;;;;;;;-4.02;100.00;97888.50;4972696;28;20008;-79
2021/01/31 06:56:00;;;;;;;;;;;;;;;-4.52;100.00;97893.91;4970691;28;19922;-79
2021/01/31 06:58:28;;;;;;;;;;;;;;;-5.09;100.00;97884.09;4972951;28;20270;-79
2021/01/31 07:00:57;;;;;;;;;;;;;;;-4.85;100.00;97887.72;4973017;28;19922;-79
2021/01/31 07:03:41;;;;;;;;;;;;;;;-4.85;100.00;97885.22;4973888;28;19922;-79
2021/01/31 07:06:21;;;;;;;;;;;;;;;-5.00;100.00;97895.06;4974261;28;19965;-78
2021/01/31 07:08:56;;;;;;;;;;;;;;;-4.78;100.00;97897.00;4972585;28;20382;-79
2021/01/31 07:11:21;;;;;;;;;;;;;;;-4.85;100.00;97895.25;4948311;28;19918;-78
2021/01/31 07:13:46;;;;;;;;;;;;;;;-4.61;100.00;97894.66;4972929;28;19929;-78
2021/01/31 07:16:17;;;;;;;;;;;;;;;-4.80;100.00;97888.63;4973561;28;19928;-79
2021/01/31 07:18:51;;;;;;;;;;;;;;;-4.87;100.00;97891.88;4974069;28;20282;-78
2021/01/31 07:21:21;;;;;;;;;;;;;;;-5.02;100.00;97884.16;4955931;28;19936;-79
2021/01/31 07:23:46;;;;;;;;;;;;;;;-5.17;100.00;97879.81;4971830;28;19918;-79
2021/01/31 07:26:15;;;;;;;;;;;;;;;-5.10;100.00;97884.94;4955483;28;19933;-79
2021/01/31 07:28:40;;;;;;;;;;;;;;;-4.86;100.00;97891.03;4972272;28;19921;-78
2021/01/31 07:31:14;;;;;;;;;;;;;;;-4.43;100.00;97894.00;4973278;28;19922;-80
2021/01/31 07:33:58;;;;;;;;;;;;;;;-4.21;100.00;97893.38;4976214;28;20387;-78
2021/01/31 07:36:32;;;;;;;;;;;;;;;-4.09;100.00;97897.66;4977098;28;19932;-79
2021/01/31 07:39:04;;;;;;;;;;;;;;;-3.95;100.00;97897.78;4958913;28;20053;-79
2021/01/31 07:41:29;;;;;;;;;;;;;;;-4.47;100.00;97897.31;4956075;28;20344;-79
2021/01/31 07:44:09;;;;;;;;;;;;;;;-4.76;100.00;97900.38;4962438;28;19977;-79
2021/01/31 07:46:35;;;;;;;;;;;;;;;-4.34;100.00;97899.13;4978325;28;20415;-79
2021/01/31 07:49:01;;;;;;;;;;;;;;;-4.07;100.00;97905.22;4993960;28;19921;-78
2021/01/31 07:51:26;;;;;;;;;;;;;;;-4.79;100.00;97907.88;4993832;28;19921;-79
2021/01/31 07:53:52;;;;;;;;;;;;;;;-4.91;100.00;97902.72;4995864;28;19925;-78
2021/01/31 07:56:26;;;;;;;;;;;;;;;-4.85;100.00;97905.31;4977300;28;19925;-78
2021/01/31 07:59:10;;;;;;;;;;;;;;;-4.39;100.00;97900.75;4993550;28;19964;-79
2021/01/31 08:01:42;;;;;;;;;;;;;;;-4.35;100.00;97892.44;4992678;28;19929;-79
2021/01/31 08:04:16;;;;;;;;;;;;;;;-4.41;100.00;97887.34;4994155;28;20004;-79
2021/01/31 08:06:45;;;;;;;;;;;;;;;-4.45;100.00;97888.13;4974706;28;19922;-79
2021/01/31 08:09:10;;;;;;;;;;;;;;;-4.25;100.00;97894.19;4992695;28;19922;-79
2021/01/31 08:11:36;;;;;;;;;;;;;;;-3.98;100.00;97889.38;4975277;28;19925;-78
2021/01/31 08:14:01;;;;;;;;;;;;;;;-3.64;100.00;97880.41;4993764;28;20033;-78
2021/01/31 08:16:48;;;;;;;;;;;;;;;-3.67;100.00;97878.72;4975744;28;19925;-78
2021/01/31 08:19:16;;;;;;;;;;;;;;;-3.54;100.00;97886.31;4994442;28;19913;-79
2021/01/31 08:22:05;;;;;;;;;;;;;;;-3.52;100.00;97877.13;4994075;28;19929;-78
2021/01/31 08:24:49;;;;;;;;;;;;;;;-3.49;100.00;97875.47;4965761;28;19913;-78
2021/01/31 08:27:14;;;;;;;;;;;;;;;-3.66;100.00;97880.38;4991945;28;19917;-79
2021/01/31 08:29:40;;;;;;;;;;;;;;;-3.58;100.00;97878.78;4974682;28;19922;-79
2021/01/31 08:32:07;;;;;;;;;;;;;;;-3.42;100.00;97878.84;4976343;28;19918;-78
2021/01/31 08:34:53;;;;;;;;;;;;;;;-3.37;100.00;97878.03;4992731;28;20436;-79
2021/01/31 08:37:27;;;;;;;;;;;;;;;-3.06;100.00;97873.13;4962872;28;20018;-78
2021/01/31 08:39:52;;;;;;;;;;;;;;;-2.68;100.00;97874.94;4991132;28;19981;-78
2021/01/31 08:42:18;;;;;;;;;;;;;;;-2.83;100.00;97869.84;4975307;28;19930;-78
2021/01/31 08:44:50;;;;;;;;;;;;;;;-2.31;100.00;97864.91;4981429;28;20292;-78
2021/01/31 08:47:16;;;;;;;;;;;;;;;-1.94;100.00;97868.31;4996390;28;20359;-80
2021/01/31 08:49:41;;;;;;;;;;;;;;;-1.81;100.00;97866.59;4977912;28;19932;-78
2021/01/31 08:52:11;;;;;;;;;;;;;;;-2.24;100.00;97871.66;4980455;28;20185;-79
2021/01/31 08:54:36;;;;;;;;;;;;;;;-2.40;100.00;97875.00;4979676;28;19926;-79
2021/01/31 08:57:06;;;;;;;;;;;;;;;-2.00;100.00;97870.81;4979254;28;19937;-78
2021/01/31 08:59:36;;;;;;;;;;;;;;;-1.82;100.00;97867.47;4997311;28;19918;-79
2021/01/31 09:02:03;;;;;;;;;;;;;;;-1.59;100.00;97871.63;4978540;28;19926;-79
2021/01/31 09:04:29;;;;;;;;;;;;;;;-1.70;100.00;97869.13;4962109;28;19964;-79
2021/01/31 09:06:58;;;;;;;;;;;;;;;-1.17;100.00;97864.78;4994844;28;19929;-79
2021/01/31 09:09:27;;;;;;;;;;;;;;;-0.73;100.00;97868.78;4993925;28;19972;-79
2021/01/31 09:12:03;;;;;;;;;;;;;;;-0.35;100.00;97873.63;4979207;28;19933;-79
2021/01/31 09:14:29;;;;;;;;;;;;;;;-1.44;100.00;97873.28;4978861;28;19985;-79
2021/01/31 09:17:08;;;;;;;;;;;;;;;-1.94;100.00;97875.00;4962003;28;19941;-79
2021/01/31 09:19:33;;;;;;;;;;;;;;;-1.26;100.00;97866.47;4979478;28;20289;-79
2021/01/31 09:22:06;;;;;;;;;;;;;;;-0.58;100.00;97862.81;4978795;28;19937;-80
2021/01/31 09:24:33;;;;;;;;;;;;;;;-0.60;100.00;97872.94;4978278;28;20005;-79
2021/01/31 09:26:59;;;;;;;;;;;;;;;0.07;100.00;97875.84;4979044;28;19921;-79
2021/01/31 09:29:25;;;;;;;;;;;;;;;-0.43;100.00;97877.91;4977235;28;19940;-79
2021/01/31 09:31:55;;;;;;;;;;;;;;;-0.32;100.00;97887.94;4978147;28;19924;-79
2021/01/31 09:34:22;;;;;;;;;;;;;;;-0.95;100.00;97896.69;4978508;28;19919;-79
2021/01/31 09:36:52;;;;;;;;;;;;;;;-1.60;100.00;97896.00;4978039;28;21301;-79
2021/01/31 09:39:19;;;;;;;;;;;;;;;-1.47;100.00;97892.63;4974981;28;20017;-79
2021/01/31 09:41:44;;;;;;;;;;;;;;;-1.53;100.00;97894.31;4977050;28;19929;-79
2021/01/31 09:44:09;;;;;;;;;;;;;;;-1.09;100.00;97889.16;4977073;28;19925;-79
2021/01/31 09:46:35;;;;;;;;;;;;;;;-1.43;100.00;97893.47;4976969;28;19922;-79
2021/01/31 09:49:03;;;;;;;;;;;;;;;-1.21;100.00;97903.50;4960913;28;19921;-81
2021/01/31 09:51:28;;;;;;;;;;;;;;;-1.16;100.00;97897.63;4975646;28;19926;-80
2021/01/31 09:53:54;;;;;;;;;;;;;;;-1.24;100.00;97898.47;4975962;28;19918;-78
2021/01/31 09:56:39;;;;;;;;;;;;;;;-1.33;100.00;97905.22;4975290;28;19984;-78
2021/01/31 09:59:15;;;;;;;;;;;;;;;-0.32;100.00;97903.13;4993207;28;19917;-78
2021/01/31 10:01:41;;;;;;;;;;;;;;;0.10;100.00;97907.03;4960555;28;19922;-78
2021/01/31 10:04:06;;;;;;;;;;;;;;;-0.14;100.00;97908.06;4993200;28;20010;-78
2021/01/31 10:06:44;;;;;;;;;;;;;;;-0.79;100.00;97916.88;4974824;28;20021;-79
2021/01/31 10:09:10;;;;;;;;;;;;;;;-0.72;100.00;97914.28;4972804;28;20211;-79
2021/01/31 10:11:41;;;;;;;;;;;;;;;-1.00;100.00;97918.63;4972854;28;19917;-79
2021/01/31 10:14:08;;;;;;;;;;;;;;;-0.89;100.00;97916.91;4990077;28;19926;-79
2021/01/31 10:16:34;;;;;;;;;;;;;;;-0.34;100.00;97912.41;4974673;28;20001;-79
2021/01/31 10:19:26;;;;;;;;;;;;;;;0.78;100.00;97897.13;4974361;28;19924;-80
2021/01/31 10:21:52;;;;;;;;;;;;;;;1.44;100.00;97893.81;4989271;28;19918;-80
2021/01/31 10:24:30;;;;;;;;;;;;;;;1.51;100.00;97894.56;4974258;28;21043;-79
2021/01/31 10:27:17;;;;;;;;;;;;;;;2.24;100.00;97892.63;4974623;28;19916;-79
2021/01/31 10:29:43;;;;;;;;;;;;;;;1.33;100.00;97885.50;4957143;28;19913;-81
2021/01/31 10:32:23;;;;;;;;;;;;;;;0.94;100.00;97881.75;4992074;28;19933;-80
2021/01/31 10:34:49;;;;;;;;;;;;;;;0.52;100.00;97883.88;4991332;28;19928;-79
2021/01/31 10:37:34;;;;;;;;;;;;;;;0.80;100.00;97870.09;4974254;28;19918;-80
2021/01/31 10:39:59;;;;;;;;;;;;;;;1.61;100.00;97865.66;4957232;28;20036;-81
2021/01/31 10:42:25;;;;;;;;;;;;;;;2.28;100.00;97862.91;4973615;28;20135;-79
2021/01/31 10:44:50;;;;;;;;;;;;;;;2.08;95.87;97868.34;4973442;28;20344;-80
2021/01/31 10:47:15;;;;;;;;;;;;;;;2.69;97.94;97858.78;4991399;28;20020;-77
2021/01/31 10:49:41;;;;;;;;;;;;;;;2.44;97.74;97866.88;4955229;28;19934;-78
2021/01/31 10:52:07;;;;;;;;;;;;;;;2.47;95.98;97859.19;4954811;28;19926;-79
2021/01/31 10:54:33;;;;;;;;;;;;;;;2.08;95.22;97861.56;4972533;28;19917;-78
2021/01/31 10:56:58;;;;;;;;;;;;;;;2.66;96.97;97854.59;4972149;28;19921;-79
2021/01/31 10:59:23;;;;;;;;;;;;;;;2.27;98.63;97858.72;4970061;28;19976;-79
2021/01/31 11:01:49;;;;;;;;;;;;;;;2.07;95.84;97853.97;4971619;28;19921;-79
2021/01/31 11:04:15;;;;;;;;;;;;;;;2.83;93.22;97846.69;4971539;28;19914;-78
2021/01/31 11:06:42;;;;;;;;;;;;;;;2.16;98.43;97842.81;4971964;28;19917;-77
2021/01/31 11:09:09;;;;;;;;;;;;;;;3.21;96.48;97842.50;4972697;28;20187;-79
2021/01/31 11:11:34;;;;;;;;;;;;;;;3.14;95.69;97830.78;4974952;28;19918;-77
2021/01/31 11:14:00;;;;;;;;;;;;;;;2.87;97.20;97825.41;4974429;28;19929;-79
2021/01/31 11:16:25;;;;;;;;;;;;;;;2.69;90.38;97828.28;4958589;28;19918;-79
2021/01/31 11:18:50;;;;;;;;;;;;;;;3.07;96.36;97819.91;4973766;28;20008;-79
2021/01/31 11:21:18;;;;;;;;;;;;;;;2.54;98.44;97818.44;4975037;28;19922;-79
2021/01/31 11:23:44;;;;;;;;;;;;;;;2.68;98.59;97819.00;4959853;28;19949;-77
2021/01/31 11:26:09;;;;;;;;;;;;;;;3.14;97.18;97812.97;4990984;28;20443;-78
2021/01/31 11:28:34;;;;;;;;;;;;;;;2.97;97.07;97802.34;4988037;28;19957;-79
2021/01/31 11:31:00;;;;;;;;;;;;;;;2.76;92.73;97794.28;4973631;28;20934;-79
2021/01/31 11:33:25;;;;;;;;;;;;;;;2.59;98.40;97791.22;4957597;28;19918;-79
2021/01/31 11:35:50;;;;;;;;;;;;;;;2.92;98.34;97787.19;4974470;28;19968;-79
2021/01/31 11:38:16;;;;;;;;;;;;;;;3.40;100.00;97791.22;4958511;28;19968;-79
2021/01/31 11:40:41;;;;;;;;;;;;;;;2.86;95.01;97790.66;4975296;28;19968;-79
2021/01/31 11:43:06;;;;;;;;;;;;;;;3.40;94.39;97786.97;4990518;28;19985;-78
2021/01/31 11:45:32;;;;;;;;;;;;;;;2.79;92.92;97783.22;4972842;28;19918;-77
2021/01/31 11:47:57;;;;;;;;;;;;;;;1.80;100.00;97785.03;4972167;28;20427;-76
2021/01/31 11:50:23;;;;;;;;;;;;;;;0.85;100.00;97788.09;4972859;28;19918;-77
2021/01/31 11:52:48;;;;;;;;;;;;;;;0.58;100.00;97779.97;4956211;28;19922;-79
2021/01/31 11:55:14;;;;;;;;;;;;;;;1.35;100.00;97771.34;4972132;28;19917;-77
2021/01/31 11:57:39;;;;;;;;;;;;;;;1.08;100.00;97768.34;4971794;28;19928;-77
2021/01/31 12:00:09;;;;;;;;;;;;;;;2.46;100.00;97766.06;4955758;28;19976;-79
2021/01/31 12:02:34;;;;;;;;;;;;;;;1.99;100.00;97759.31;4972876;28;20304;-78
2021/01/31 12:05:00;;;;;;;;;;;;;;;1.24;100.00;97764.72;4972353;28;20016;-78
2021/01/31 12:07:25;;;;;;;;;;;;;;;0.77;100.00;97763.66;4956309;28;19914;-78
2021/01/31 12:09:51;;;;;;;;;;;;;;;0.41;100.00;97755.69;4973117;28;20368;-78
2021/01/31 12:12:16;;;;;;;;;;;;;;;0.73;100.00;97743.47;4989766;28;20020;-78
2021/01/31 12:14:45;;;;;;;;;;;;;;;1.28;100.00;97749.44;4972873;28;20428;-79
2021/01/31 12:17:10;;;;;;;;;;;;;;;1.28;100.00;97745.25;4956820;28;20027;-77
2021/01/31 12:19:36;;;;;;;;;;;;;;;0.96;100.00;97743.19;4956116;28;19918;-78
2021/01/31 12:22:01;;;;;;;;;;;;;;;1.25;100.00;97741.06;4985822;28;20004;-78
2021/01/31 12:24:26;;;;;;;;;;;;;;;2.20;100.00;97742.84;4968489;28;19925;-78
2021/01/31 12:26:52;;;;;;;;;;;;;;;1.60;100.00;97741.38;4970699;28;19940;-78
2021/01/31 12:29:17;;;;;;;;;;;;;;;1.06;100.00;97739.63;4969209;28;20482;-79
2021/01/31 12:31:43;;;;;;;;;;;;;;;1.77;100.00;97733.47;4954863;28;19918;-79
2021/01/31 12:34:08;;;;;;;;;;;;;;;1.86;100.00;97733.28;4974471;28;19987;-79
2021/01/31 12:36:33;;;;;;;;;;;;;;;0.99;100.00;97725.38;4973819;28;19965;-78
2021/01/31 12:38:59;;;;;;;;;;;;;;;0.90;100.00;97723.81;4958014;28;19924;-79
2021/01/31 12:41:24;;;;;;;;;;;;;;;1.17;100.00;97719.22;4973473;28;19937;-79
2021/01/31 12:43:49;;;;;;;;;;;;;;;0.96;100.00;97707.69;4991813;28;19929;-80
2021/01/31 12:46:15;;;;;;;;;;;;;;;0.74;100.00;97707.97;4973452;28;19925;-78
2021/01/31 12:48:40;;;;;;;;;;;;;;;0.72;100.00;97709.69;4991004;28;19921;-78